sensor_id;sensor_type;location;lat;lon;timestamp;pressure;altitude;pressure_sealevel;temperature;humidity
10988;BME280;5547;42.672;23.230;2023-05-03T00:01:31;93564.81;;;9.91;59.64
10988;BME280;5547;42.672;23.230;2023-05-03T00:04:32;93523.81;;;9.51;58.82
10988;BME280;5547;42.672;23.230;2023-05-03T00:07:33;93565.28;;;9.82;58.12
10988;BME280;5547;42.672;23.230;2023-05-03T00:10:33;93557.03;;;9.70;57.67
10988;BME280;5547;42.672;23.230;2023-05-03T00:13:34;93580.84;;;9.80;57.90
10988;BME280;5547;42.672;23.230;2023-05-03T00:16:35;93578.31;;;9.66;57.72
10988;BME280;5547;42.672;23.230;2023-05-03T00:19:35;93580.50;;;9.75;56.92
10988;BME280;5547;42.672;23.230;2023-05-03T00:22:37;93588.53;;;9.67;57.82
10988;BME280;5547;42.672;23.230;2023-05-03T00:25:37;93586.28;;;9.62;58.12
10988;BME280;5547;42.672;23.230;2023-05-03T00:28:37;93589.38;;;9.54;58.41
10988;BME280;5547;42.672;23.230;2023-05-03T00:31:38;93573.97;;;9.34;58.51
10988;BME280;5547;42.672;23.230;2023-05-03T00:34:38;93513.94;;;8.92;58.93
10988;BME280;5547;42.672;23.230;2023-05-03T00:37:38;93590.59;;;9.42;57.46
10988;BME280;5547;42.672;23.230;2023-05-03T00:40:39;93572.88;;;9.32;58.96
10988;BME280;5547;42.672;23.230;2023-05-03T00:43:40;93592.53;;;9.38;58.48
10988;BME280;5547;42.672;23.230;2023-05-03T00:46:40;93601.63;;;9.37;58.38
10988;BME280;5547;42.672;23.230;2023-05-03T00:49:41;93545.06;;;8.84;58.39
10988;BME280;5547;42.672;23.230;2023-05-03T00:52:41;93594.41;;;9.41;58.42
10988;BME280;5547;42.672;23.230;2023-05-03T00:55:43;93526.13;;;8.86;57.75
10988;BME280;5547;42.672;23.230;2023-05-03T00:58:44;93541.22;;;8.99;58.22
10988;BME280;5547;42.672;23.230;2023-05-03T01:01:48;93605.47;;;9.29;57.68
10988;BME280;5547;42.672;23.230;2023-05-03T01:04:50;93592.97;;;9.25;57.88
10988;BME280;5547;42.672;23.230;2023-05-03T01:08:08;93594.19;;;9.17;58.79
10988;BME280;5547;42.672;23.230;2023-05-03T01:11:16;93537.53;;;8.79;58.36
10988;BME280;5547;42.672;23.230;2023-05-03T01:17:28;93571.56;;;8.95;58.24
10988;BME280;5547;42.672;23.230;2023-05-03T01:20:29;93536.81;;;8.64;58.08
10988;BME280;5547;42.672;23.230;2023-05-03T01:23:53;93578.06;;;8.83;58.50
10988;BME280;5547;42.672;23.230;2023-05-03T01:26:54;93555.38;;;8.71;57.81
10988;BME280;5547;42.672;23.230;2023-05-03T01:29:54;93512.69;;;8.44;58.56
10988;BME280;5547;42.672;23.230;2023-05-03T01:36:12;93561.41;;;8.75;59.32
10988;BME280;5547;42.672;23.230;2023-05-03T01:39:17;93559.50;;;8.79;59.12
10988;BME280;5547;42.672;23.230;2023-05-03T01:42:19;93493.75;;;8.35;58.72
10988;BME280;5547;42.672;23.230;2023-05-03T01:45:19;93524.78;;;8.45;58.98
10988;BME280;5547;42.672;23.230;2023-05-03T01:48:21;93542.88;;;8.68;59.42
10988;BME280;5547;42.672;23.230;2023-05-03T01:51:21;93557.31;;;8.60;59.34
10988;BME280;5547;42.672;23.230;2023-05-03T01:54:21;93477.91;;;8.20;58.35
10988;BME280;5547;42.672;23.230;2023-05-03T01:57:22;93538.75;;;8.56;60.03
10988;BME280;5547;42.672;23.230;2023-05-03T02:00:22;93476.03;;;8.14;60.01
10988;BME280;5547;42.672;23.230;2023-05-03T02:03:22;93527.03;;;8.57;58.91
10988;BME280;5547;42.672;23.230;2023-05-03T02:06:24;93524.41;;;8.47;59.85
10988;BME280;5547;42.672;23.230;2023-05-03T02:09:25;93485.47;;;8.26;59.44
10988;BME280;5547;42.672;23.230;2023-05-03T02:12:25;93515.72;;;8.43;58.89
10988;BME280;5547;42.672;23.230;2023-05-03T02:15:26;93468.84;;;8.11;59.79
10988;BME280;5547;42.672;23.230;2023-05-03T02:18:26;93433.41;;;7.72;61.12
10988;BME280;5547;42.672;23.230;2023-05-03T02:21:32;93447.75;;;7.82;60.08
10988;BME280;5547;42.672;23.230;2023-05-03T02:24:33;93448.50;;;7.83;61.67
10988;BME280;5547;42.672;23.230;2023-05-03T02:27:35;93501.75;;;8.24;60.16
10988;BME280;5547;42.672;23.230;2023-05-03T02:30:35;93504.41;;;8.17;61.63
10988;BME280;5547;42.672;23.230;2023-05-03T02:33:36;93505.13;;;8.25;60.65
10988;BME280;5547;42.672;23.230;2023-05-03T02:36:36;93507.06;;;8.17;61.46
10988;BME280;5547;42.672;23.230;2023-05-03T02:39:36;93507.44;;;8.15;62.24
10988;BME280;5547;42.672;23.230;2023-05-03T02:42:38;93514.25;;;8.13;61.67
10988;BME280;5547;42.672;23.230;2023-05-03T02:45:38;93511.59;;;8.13;61.21
10988;BME280;5547;42.672;23.230;2023-05-03T02:48:38;93535.09;;;8.14;61.52
10988;BME280;5547;42.672;23.230;2023-05-03T02:51:39;93519.56;;;8.13;62.81
10988;BME280;5547;42.672;23.230;2023-05-03T02:54:39;93513.88;;;8.14;61.94
10988;BME280;5547;42.672;23.230;2023-05-03T02:57:40;93475.75;;;7.76;62.17
10988;BME280;5547;42.672;23.230;2023-05-03T03:00:40;93528.97;;;8.28;61.04
10988;BME280;5547;42.672;23.230;2023-05-03T03:03:41;93484.41;;;8.09;61.05
10988;BME280;5547;42.672;23.230;2023-05-03T03:06:41;93528.25;;;8.17;60.76
10988;BME280;5547;42.672;23.230;2023-05-03T03:09:42;93530.91;;;8.20;61.46
10988;BME280;5547;42.672;23.230;2023-05-03T03:12:42;93519.53;;;8.24;61.62
10988;BME280;5547;42.672;23.230;2023-05-03T03:15:42;93525.59;;;8.28;60.75
10988;BME280;5547;42.672;23.230;2023-05-03T03:18:43;93527.09;;;8.25;61.52
10988;BME280;5547;42.672;23.230;2023-05-03T03:21:43;93500.69;;;8.00;61.58
10988;BME280;5547;42.672;23.230;2023-05-03T03:24:44;93530.91;;;8.17;63.13
10988;BME280;5547;42.672;23.230;2023-05-03T03:27:44;93540.00;;;8.16;62.65
10988;BME280;5547;42.672;23.230;2023-05-03T03:30:45;93542.31;;;7.99;64.62
10988;BME280;5547;42.672;23.230;2023-05-03T03:33:45;93533.22;;;8.00;63.88
10988;BME280;5547;42.672;23.230;2023-05-03T03:36:46;93558.19;;;8.03;63.52
10988;BME280;5547;42.672;23.230;2023-05-03T03:39:46;93549.13;;;8.00;64.81
10988;BME280;5547;42.672;23.230;2023-05-03T03:42:47;93566.50;;;8.09;63.05
10988;BME280;5547;42.672;23.230;2023-05-03T03:45:47;93564.22;;;8.11;62.71
10988;BME280;5547;42.672;23.230;2023-05-03T03:48:47;93537.38;;;8.05;61.92
10988;BME280;5547;42.672;23.230;2023-05-03T03:51:48;93564.22;;;8.25;61.85
10988;BME280;5547;42.672;23.230;2023-05-03T03:54:48;93488.63;;;7.81;62.08
10988;BME280;5547;42.672;23.230;2023-05-03T03:57:49;93475.00;;;7.79;61.72
10988;BME280;5547;42.672;23.230;2023-05-03T04:00:49;93567.97;;;8.31;62.34
10988;BME280;5547;42.672;23.230;2023-05-03T04:03:51;93573.25;;;8.35;62.14
10988;BME280;5547;42.672;23.230;2023-05-03T04:06:51;93519.19;;;8.07;62.69
10988;BME280;5547;42.672;23.230;2023-05-03T04:09:52;93569.09;;;8.37;63.04
10988;BME280;5547;42.672;23.230;2023-05-03T04:12:53;93557.38;;;8.24;63.66
10988;BME280;5547;42.672;23.230;2023-05-03T04:15:54;93564.16;;;8.39;62.20
10988;BME280;5547;42.672;23.230;2023-05-03T04:18:55;93577.41;;;8.54;61.60
10988;BME280;5547;42.672;23.230;2023-05-03T04:21:56;93588.00;;;8.36;63.52
10988;BME280;5547;42.672;23.230;2023-05-03T04:24:56;93567.94;;;8.46;60.71
10988;BME280;5547;42.672;23.230;2023-05-03T04:27:57;93594.44;;;8.46;62.20
10988;BME280;5547;42.672;23.230;2023-05-03T04:30:57;93584.63;;;8.43;62.71
10988;BME280;5547;42.672;23.230;2023-05-03T04:33:58;93533.97;;;7.94;63.04
10988;BME280;5547;42.672;23.230;2023-05-03T04:36:58;93612.63;;;8.58;62.62
10988;BME280;5547;42.672;23.230;2023-05-03T04:39:59;93615.25;;;8.61;61.59
10988;BME280;5547;42.672;23.230;2023-05-03T04:43:00;93595.56;;;8.52;60.82
10988;BME280;5547;42.672;23.230;2023-05-03T04:46:01;93622.41;;;8.68;61.72
10988;BME280;5547;42.672;23.230;2023-05-03T04:49:02;93580.47;;;8.24;61.29
10988;BME280;5547;42.672;23.230;2023-05-03T04:52:03;93627.38;;;8.59;63.10
10988;BME280;5547;42.672;23.230;2023-05-03T04:55:04;93601.63;;;8.38;62.96
10988;BME280;5547;42.672;23.230;2023-05-03T04:58:04;93631.13;;;8.72;61.56
10988;BME280;5547;42.672;23.230;2023-05-03T05:01:05;93624.72;;;8.52;60.85
10988;BME280;5547;42.672;23.230;2023-05-03T05:04:06;93633.06;;;8.50;63.61
10988;BME280;5547;42.672;23.230;2023-05-03T05:07:06;93643.22;;;8.80;60.81
10988;BME280;5547;42.672;23.230;2023-05-03T05:10:07;93630.78;;;8.63;62.93
10988;BME280;5547;42.672;23.230;2023-05-03T05:13:08;93649.69;;;8.69;64.79
10988;BME280;5547;42.672;23.230;2023-05-03T05:16:08;93629.63;;;8.57;64.56
10988;BME280;5547;42.672;23.230;2023-05-03T05:19:09;93644.81;;;8.60;67.85
10988;BME280;5547;42.672;23.230;2023-05-03T05:22:09;93605.47;;;8.12;70.25
10988;BME280;5547;42.672;23.230;2023-05-03T05:25:09;93645.97;;;8.30;70.30
10988;BME280;5547;42.672;23.230;2023-05-03T05:28:10;93663.38;;;8.17;74.23
10988;BME280;5547;42.672;23.230;2023-05-03T05:31:10;93664.16;;;7.99;74.49
10988;BME280;5547;42.672;23.230;2023-05-03T05:34:11;93655.06;;;8.18;78.23
10988;BME280;5547;42.672;23.230;2023-05-03T05:37:11;93619.84;;;7.71;78.45
10988;BME280;5547;42.672;23.230;2023-05-03T05:40:12;93667.56;;;7.93;81.08
10988;BME280;5547;42.672;23.230;2023-05-03T05:43:12;93663.00;;;7.93;81.44
10988;BME280;5547;42.672;23.230;2023-05-03T05:46:13;93670.22;;;7.93;80.27
10988;BME280;5547;42.672;23.230;2023-05-03T05:49:13;93666.78;;;7.85;82.06
10988;BME280;5547;42.672;23.230;2023-05-03T05:52:14;93674.75;;;7.99;79.45
10988;BME280;5547;42.672;23.230;2023-05-03T05:55:14;93616.44;;;7.53;84.64
10988;BME280;5547;42.672;23.230;2023-05-03T05:58:15;93661.88;;;7.84;82.54
10988;BME280;5547;42.672;23.230;2023-05-03T06:01:15;93655.81;;;7.90;77.54
10988;BME280;5547;42.672;23.230;2023-05-03T06:04:16;93674.00;;;7.95;80.27
10988;BME280;5547;42.672;23.230;2023-05-03T06:07:16;93671.72;;;7.90;86.70
10988;BME280;5547;42.672;23.230;2023-05-03T06:10:17;93632.38;;;7.67;88.17
10988;BME280;5547;42.672;23.230;2023-05-03T06:13:18;93655.81;;;7.97;83.54
10988;BME280;5547;42.672;23.230;2023-05-03T06:16:18;93667.19;;;7.91;81.73
10988;BME280;5547;42.672;23.230;2023-05-03T06:19:18;93674.72;;;7.92;78.87
10988;BME280;5547;42.672;23.230;2023-05-03T06:22:19;93619.09;;;7.78;79.46
10988;BME280;5547;42.672;23.230;2023-05-03T06:25:19;93665.66;;;8.11;80.67
10988;BME280;5547;42.672;23.230;2023-05-03T06:28:19;93630.84;;;8.02;81.53
10988;BME280;5547;42.672;23.230;2023-05-03T06:31:20;93643.28;;;8.37;78.54
10988;BME280;5547;42.672;23.230;2023-05-03T06:34:20;93664.09;;;8.68;76.51
10988;BME280;5547;42.672;23.230;2023-05-03T06:37:22;93647.34;;;8.89;78.50
10988;BME280;5547;42.672;23.230;2023-05-03T06:40:22;93654.19;;;8.86;77.50
10988;BME280;5547;42.672;23.230;2023-05-03T06:43:25;93650.38;;;8.94;78.85
10988;BME280;5547;42.672;23.230;2023-05-03T06:46:26;93642.84;;;8.78;75.60
10988;BME280;5547;42.672;23.230;2023-05-03T06:49:27;93642.09;;;8.81;73.94
10988;BME280;5547;42.672;23.230;2023-05-03T06:52:27;93645.78;;;9.02;73.60
10988;BME280;5547;42.672;23.230;2023-05-03T06:55:28;93640.16;;;8.93;74.25
10988;BME280;5547;42.672;23.230;2023-05-03T06:58:28;93615.56;;;8.81;74.82
10988;BME280;5547;42.672;23.230;2023-05-03T07:01:30;93629.88;;;9.02;75.84
10988;BME280;5547;42.672;23.230;2023-05-03T07:04:30;93638.69;;;8.77;72.68
10988;BME280;5547;42.672;23.230;2023-05-03T07:07:31;93564.94;;;8.22;72.61
10988;BME280;5547;42.672;23.230;2023-05-03T07:10:32;93626.97;;;8.71;72.18
10988;BME280;5547;42.672;23.230;2023-05-03T07:13:33;93618.19;;;8.92;77.21
10988;BME280;5547;42.672;23.230;2023-05-03T07:16:33;93572.28;;;8.99;71.08
10988;BME280;5547;42.672;23.230;2023-05-03T07:19:34;93639.97;;;9.36;72.38
10988;BME280;5547;42.672;23.230;2023-05-03T07:22:36;93644.44;;;9.42;73.02
10988;BME280;5547;42.672;23.230;2023-05-03T07:25:36;93655.41;;;9.52;70.88
10988;BME280;5547;42.672;23.230;2023-05-03T07:28:38;93662.97;;;9.53;71.94
10988;BME280;5547;42.672;23.230;2023-05-03T07:31:38;93652.28;;;9.67;68.83
10988;BME280;5547;42.672;23.230;2023-05-03T07:34:39;93664.16;;;10.08;70.93
10988;BME280;5547;42.672;23.230;2023-05-03T07:37:39;93648.06;;;10.22;70.67
10988;BME280;5547;42.672;23.230;2023-05-03T07:40:40;93650.84;;;10.57;71.19
10988;BME280;5547;42.672;23.230;2023-05-03T07:43:40;93627.81;;;9.91;68.89
10988;BME280;5547;42.672;23.230;2023-05-03T07:46:41;93659.72;;;10.39;70.71
10988;BME280;5547;42.672;23.230;2023-05-03T07:49:41;93655.84;;;10.47;68.87
10988;BME280;5547;42.672;23.230;2023-05-03T07:52:42;93653.34;;;10.33;68.26
10988;BME280;5547;42.672;23.230;2023-05-03T07:55:42;93619.97;;;9.73;67.85
10988;BME280;5547;42.672;23.230;2023-05-03T07:58:42;93585.97;;;10.02;67.54
10988;BME280;5547;42.672;23.230;2023-05-03T08:01:43;93653.72;;;10.28;67.16
10988;BME280;5547;42.672;23.230;2023-05-03T08:04:43;93651.69;;;10.46;69.66
10988;BME280;5547;42.672;23.230;2023-05-03T08:07:44;93657.78;;;10.47;70.69
10988;BME280;5547;42.672;23.230;2023-05-03T08:10:44;93667.97;;;10.52;69.15
10988;BME280;5547;42.672;23.230;2023-05-03T08:13:45;93668.28;;;10.58;67.71
10988;BME280;5547;42.672;23.230;2023-05-03T08:16:45;93668.72;;;10.90;67.18
10988;BME280;5547;42.672;23.230;2023-05-03T08:19:46;93677.28;;;11.40;67.85
10988;BME280;5547;42.672;23.230;2023-05-03T08:22:46;93663.28;;;11.63;66.83
10988;BME280;5547;42.672;23.230;2023-05-03T08:25:47;93586.84;;;11.32;67.12
10988;BME280;5547;42.672;23.230;2023-05-03T08:28:48;93586.06;;;11.05;65.38
10988;BME280;5547;42.672;23.230;2023-05-03T08:31:48;93644.31;;;11.57;64.67
10988;BME280;5547;42.672;23.230;2023-05-03T08:34:48;93573.69;;;11.72;64.57
10988;BME280;5547;42.672;23.230;2023-05-03T08:37:49;93668.97;;;12.19;66.85
10988;BME280;5547;42.672;23.230;2023-05-03T08:40:50;93680.19;;;12.97;60.61
10988;BME280;5547;42.672;23.230;2023-05-03T08:43:54;93679.41;;;13.40;62.52
10988;BME280;5547;42.672;23.230;2023-05-03T08:46:55;93666.72;;;13.24;60.88
10988;BME280;5547;42.672;23.230;2023-05-03T08:49:55;93681.38;;;12.96;59.52
10988;BME280;5547;42.672;23.230;2023-05-03T08:52:58;93675.03;;;12.67;64.21
10988;BME280;5547;42.672;23.230;2023-05-03T08:55:59;93680.25;;;12.74;64.54
10988;BME280;5547;42.672;23.230;2023-05-03T08:58:59;93659.78;;;11.96;63.67
10988;BME280;5547;42.672;23.230;2023-05-03T09:02:07;93558.53;;;11.15;66.36
10988;BME280;5547;42.672;23.230;2023-05-03T09:08:15;93679.31;;;11.86;65.35
10988;BME280;5547;42.672;23.230;2023-05-03T09:11:20;93681.34;;;12.76;61.41
10988;BME280;5547;42.672;23.230;2023-05-03T09:14:21;93675.22;;;13.39;62.52
10988;BME280;5547;42.672;23.230;2023-05-03T09:17:21;93646.94;;;13.22;61.31
10988;BME280;5547;42.672;23.230;2023-05-03T09:20:34;93613.44;;;13.17;62.56
10988;BME280;5547;42.672;23.230;2023-05-03T09:23:35;93637.81;;;14.08;56.58
10988;BME280;5547;42.672;23.230;2023-05-03T09:26:36;93668.22;;;13.82;59.51
10988;BME280;5547;42.672;23.230;2023-05-03T09:29:37;93662.97;;;13.22;60.34
10988;BME280;5547;42.672;23.230;2023-05-03T09:32:47;93655.50;;;13.70;59.84
10988;BME280;5547;42.672;23.230;2023-05-03T09:36:05;93641.16;;;13.43;61.61
10988;BME280;5547;42.672;23.230;2023-05-03T09:39:15;93643.31;;;13.32;62.22
10988;BME280;5547;42.672;23.230;2023-05-03T09:42:17;93643.47;;;14.43;59.65
10988;BME280;5547;42.672;23.230;2023-05-03T09:45:22;93645.41;;;13.21;60.52
10988;BME280;5547;42.672;23.230;2023-05-03T09:48:24;93604.34;;;13.15;59.52
10988;BME280;5547;42.672;23.230;2023-05-03T09:51:25;93629.84;;;13.72;64.73
10988;BME280;5547;42.672;23.230;2023-05-03T09:54:27;93642.50;;;14.37;57.06
10988;BME280;5547;42.672;23.230;2023-05-03T09:57:31;93637.63;;;14.32;57.97
10988;BME280;5547;42.672;23.230;2023-05-03T10:03:42;93634.97;;;13.83;62.95
10988;BME280;5547;42.672;23.230;2023-05-03T10:06:46;93635.84;;;13.60;61.13
10988;BME280;5547;42.672;23.230;2023-05-03T10:09:47;93620.69;;;14.06;61.17
10988;BME280;5547;42.672;23.230;2023-05-03T10:12:48;93624.53;;;14.54;59.79
10988;BME280;5547;42.672;23.230;2023-05-03T10:16:02;93628.91;;;14.77;61.29
10988;BME280;5547;42.672;23.230;2023-05-03T10:19:14;93619.31;;;15.47;56.20
10988;BME280;5547;42.672;23.230;2023-05-03T10:22:16;93584.75;;;15.24;56.07
10988;BME280;5547;42.672;23.230;2023-05-03T10:25:17;93588.88;;;15.67;54.17
10988;BME280;5547;42.672;23.230;2023-05-03T10:28:17;93597.13;;;14.92;58.45
10988;BME280;5547;42.672;23.230;2023-05-03T10:31:46;93585.19;;;15.09;55.54
10988;BME280;5547;42.672;23.230;2023-05-03T10:34:46;93586.34;;;15.08;56.42
10988;BME280;5547;42.672;23.230;2023-05-03T10:37:48;93591.53;;;15.54;55.88
10988;BME280;5547;42.672;23.230;2023-05-03T10:40:50;93597.00;;;16.02;57.89
10988;BME280;5547;42.672;23.230;2023-05-03T10:43:51;93597.00;;;16.02;54.36
10988;BME280;5547;42.672;23.230;2023-05-03T10:46:55;93600.75;;;16.04;54.43
10988;BME280;5547;42.672;23.230;2023-05-03T10:56:30;93596.91;;;15.54;56.98
10988;BME280;5547;42.672;23.230;2023-05-03T10:59:45;93571.69;;;15.51;57.62
10988;BME280;5547;42.672;23.230;2023-05-03T11:05:56;93579.78;;;14.97;57.59
10988;BME280;5547;42.672;23.230;2023-05-03T11:08:56;93583.28;;;15.48;57.13
10988;BME280;5547;42.672;23.230;2023-05-03T11:11:57;93505.84;;;14.86;56.66
10988;BME280;5547;42.672;23.230;2023-05-03T11:14:58;93580.09;;;15.79;55.75
10988;BME280;5547;42.672;23.230;2023-05-03T11:17:58;93584.03;;;15.62;57.57
10988;BME280;5547;42.672;23.230;2023-05-03T11:20:58;93554.56;;;15.74;55.47
10988;BME280;5547;42.672;23.230;2023-05-03T11:24:00;93576.63;;;15.66;56.96
10988;BME280;5547;42.672;23.230;2023-05-03T11:27:00;93573.53;;;15.67;56.95
10988;BME280;5547;42.672;23.230;2023-05-03T11:30:02;93569.00;;;15.26;57.03
10988;BME280;5547;42.672;23.230;2023-05-03T11:33:02;93543.84;;;15.74;56.17
10988;BME280;5547;42.672;23.230;2023-05-03T11:36:04;93561.94;;;15.58;55.83
10988;BME280;5547;42.672;23.230;2023-05-03T11:39:05;93547.38;;;15.46;55.38
10988;BME280;5547;42.672;23.230;2023-05-03T11:42:06;93542.16;;;16.03;53.85
10988;BME280;5547;42.672;23.230;2023-05-03T11:45:07;93557.97;;;15.75;55.48
10988;BME280;5547;42.672;23.230;2023-05-03T11:48:07;93552.47;;;16.04;56.74
10988;BME280;5547;42.672;23.230;2023-05-03T11:51:08;93495.56;;;16.09;54.80
10988;BME280;5547;42.672;23.230;2023-05-03T11:54:13;93519.16;;;15.80;55.47
10988;BME280;5547;42.672;23.230;2023-05-03T11:57:13;93526.88;;;16.25;54.98
10988;BME280;5547;42.672;23.230;2023-05-03T12:00:15;93483.00;;;15.84;54.79
10988;BME280;5547;42.672;23.230;2023-05-03T12:06:21;93510.38;;;16.14;54.63
10988;BME280;5547;42.672;23.230;2023-05-03T12:09:24;93474.28;;;16.50;54.69
10988;BME280;5547;42.672;23.230;2023-05-03T12:12:24;93506.81;;;17.05;55.80
10988;BME280;5547;42.672;23.230;2023-05-03T12:15:32;93505.53;;;17.19;54.25
10988;BME280;5547;42.672;23.230;2023-05-03T12:21:47;93502.09;;;15.86;57.29
10988;BME280;5547;42.672;23.230;2023-05-03T12:24:47;93490.31;;;15.58;58.30
10988;BME280;5547;42.672;23.230;2023-05-03T12:27:48;93437.94;;;14.67;59.78
10988;BME280;5547;42.672;23.230;2023-05-03T12:30:48;93448.56;;;14.84;61.36
10988;BME280;5547;42.672;23.230;2023-05-03T12:33:49;93430.88;;;14.19;61.96
10988;BME280;5547;42.672;23.230;2023-05-03T12:36:49;93459.78;;;13.78;62.82
10988;BME280;5547;42.672;23.230;2023-05-03T12:39:50;93482.06;;;13.88;63.65
10988;BME280;5547;42.672;23.230;2023-05-03T12:42:50;93490.69;;;13.96;64.35
10988;BME280;5547;42.672;23.230;2023-05-03T12:45:51;93480.44;;;13.61;65.15
10988;BME280;5547;42.672;23.230;2023-05-03T12:48:51;93479.38;;;13.42;66.45
10988;BME280;5547;42.672;23.230;2023-05-03T12:51:52;93448.25;;;12.83;67.68
10988;BME280;5547;42.672;23.230;2023-05-03T12:54:54;93468.63;;;13.10;67.45
10988;BME280;5547;42.672;23.230;2023-05-03T12:57:55;93473.22;;;13.09;69.94
10988;BME280;5547;42.672;23.230;2023-05-03T13:00:55;93468.94;;;12.95;68.37
10988;BME280;5547;42.672;23.230;2023-05-03T13:03:55;93464.31;;;12.79;69.71
10988;BME280;5547;42.672;23.230;2023-05-03T13:06:56;93395.06;;;12.19;71.18
10988;BME280;5547;42.672;23.230;2023-05-03T13:09:57;93449.47;;;12.42;71.84
10988;BME280;5547;42.672;23.230;2023-05-03T13:12:58;93462.59;;;12.53;74.08
10988;BME280;5547;42.672;23.230;2023-05-03T13:15:59;93476.75;;;12.50;77.18
10988;BME280;5547;42.672;23.230;2023-05-03T13:19:01;93485.50;;;12.10;80.21
10988;BME280;5547;42.672;23.230;2023-05-03T13:22:01;93484.72;;;11.90;83.37
10988;BME280;5547;42.672;23.230;2023-05-03T13:25:01;93494.28;;;11.64;86.10
10988;BME280;5547;42.672;23.230;2023-05-03T13:28:03;93496.81;;;11.47;90.26
10988;BME280;5547;42.672;23.230;2023-05-03T13:31:03;93483.00;;;11.32;90.11
10988;BME280;5547;42.672;23.230;2023-05-03T13:34:04;93484.09;;;11.08;100.00
10988;BME280;5547;42.672;23.230;2023-05-03T13:37:05;93406.25;;;10.49;100.00
10988;BME280;5547;42.672;23.230;2023-05-03T13:40:06;93453.53;;;10.92;100.00
10988;BME280;5547;42.672;23.230;2023-05-03T13:43:06;93489.88;;;11.03;100.00
10988;BME280;5547;42.672;23.230;2023-05-03T13:46:07;93483.44;;;10.73;100.00
10988;BME280;5547;42.672;23.230;2023-05-03T13:49:08;93504.41;;;10.67;100.00
10988;BME280;5547;42.672;23.230;2023-05-03T13:52:10;93502.69;;;10.54;100.00
10988;BME280;5547;42.672;23.230;2023-05-03T13:55:10;93509.19;;;10.15;100.00
10988;BME280;5547;42.672;23.230;2023-05-03T13:58:10;93509.34;;;9.97;100.00
10988;BME280;5547;42.672;23.230;2023-05-03T14:01:11;93492.38;;;9.87;100.00
10988;BME280;5547;42.672;23.230;2023-05-03T14:04:11;93492.91;;;9.71;100.00
10988;BME280;5547;42.672;23.230;2023-05-03T14:07:12;93482.38;;;9.60;100.00
10988;BME280;5547;42.672;23.230;2023-05-03T14:10:12;93471.19;;;9.38;100.00
10988;BME280;5547;42.672;23.230;2023-05-03T14:13:12;93480.59;;;9.46;100.00
10988;BME280;5547;42.672;23.230;2023-05-03T14:16:17;93470.34;;;9.45;100.00
10988;BME280;5547;42.672;23.230;2023-05-03T14:19:18;93484.44;;;9.83;100.00
10988;BME280;5547;42.672;23.230;2023-05-03T14:22:18;93496.34;;;10.06;100.00
10988;BME280;5547;42.672;23.230;2023-05-03T14:25:18;93501.16;;;10.56;100.00
10988;BME280;5547;42.672;23.230;2023-05-03T14:28:19;93489.44;;;10.50;100.00
10988;BME280;5547;42.672;23.230;2023-05-03T14:31:19;93487.31;;;10.38;100.00
10988;BME280;5547;42.672;23.230;2023-05-03T14:34:20;93491.94;;;10.30;100.00
10988;BME280;5547;42.672;23.230;2023-05-03T14:37:20;93468.03;;;10.26;100.00
10988;BME280;5547;42.672;23.230;2023-05-03T14:40:20;93439.56;;;9.93;100.00
10988;BME280;5547;42.672;23.230;2023-05-03T14:43:21;93489.28;;;10.30;100.00
10988;BME280;5547;42.672;23.230;2023-05-03T14:46:21;93493.66;;;10.09;100.00
10988;BME280;5547;42.672;23.230;2023-05-03T14:49:22;93371.97;;;9.21;100.00
10988;BME280;5547;42.672;23.230;2023-05-03T14:52:22;93483.31;;;9.81;100.00
10988;BME280;5547;42.672;23.230;2023-05-03T14:55:23;93459.16;;;9.27;100.00
10988;BME280;5547;42.672;23.230;2023-05-03T14:58:23;93496.00;;;9.14;100.00
10988;BME280;5547;42.672;23.230;2023-05-03T15:01:24;93492.56;;;9.20;100.00
10988;BME280;5547;42.672;23.230;2023-05-03T15:04:25;93510.75;;;9.22;100.00
10988;BME280;5547;42.672;23.230;2023-05-03T15:07:25;93505.88;;;9.10;100.00
10988;BME280;5547;42.672;23.230;2023-05-03T15:10:26;93474.66;;;8.76;100.00
10988;BME280;5547;42.672;23.230;2023-05-03T15:13:26;93499.53;;;8.96;100.00
10988;BME280;5547;42.672;23.230;2023-05-03T15:16:27;93420.28;;;8.43;100.00
10988;BME280;5547;42.672;23.230;2023-05-03T15:19:27;93473.44;;;8.88;100.00
10988;BME280;5547;42.672;23.230;2023-05-03T15:22:27;93483.59;;;8.96;100.00
10988;BME280;5547;42.672;23.230;2023-05-03T15:25:28;93469.31;;;8.83;100.00
10988;BME280;5547;42.672;23.230;2023-05-03T15:28:28;93477.91;;;8.98;100.00
10988;BME280;5547;42.672;23.230;2023-05-03T15:31:28;93478.25;;;9.07;100.00
10988;BME280;5547;42.672;23.230;2023-05-03T15:34:29;93468.84;;;8.92;100.00
10988;BME280;5547;42.672;23.230;2023-05-03T15:37:36;93488.84;;;9.11;100.00
10988;BME280;5547;42.672;23.230;2023-05-03T15:40:36;93493.09;;;8.97;100.00
10988;BME280;5547;42.672;23.230;2023-05-03T15:43:37;93488.94;;;8.93;100.00
10988;BME280;5547;42.672;23.230;2023-05-03T15:46:37;93436.91;;;8.50;100.00
10988;BME280;5547;42.672;23.230;2023-05-03T15:49:38;93419.88;;;8.51;100.00
10988;BME280;5547;42.672;23.230;2023-05-03T15:52:38;93468.56;;;8.75;100.00
10988;BME280;5547;42.672;23.230;2023-05-03T15:55:38;93474.56;;;8.90;100.00
10988;BME280;5547;42.672;23.230;2023-05-03T15:58:39;93453.78;;;8.78;100.00
10988;BME280;5547;42.672;23.230;2023-05-03T16:01:40;93454.94;;;8.77;100.00
10988;BME280;5547;42.672;23.230;2023-05-03T16:04:40;93491.19;;;8.98;100.00
10988;BME280;5547;42.672;23.230;2023-05-03T16:07:41;93491.22;;;8.94;100.00
10988;BME280;5547;42.672;23.230;2023-05-03T16:10:41;93481.78;;;8.86;100.00
10988;BME280;5547;42.672;23.230;2023-05-03T16:13:42;93519.09;;;9.17;100.00
10988;BME280;5547;42.672;23.230;2023-05-03T16:16:42;93414.25;;;8.35;100.00
10988;BME280;5547;42.672;23.230;2023-05-03T16:19:45;93496.50;;;8.98;100.00
10988;BME280;5547;42.672;23.230;2023-05-03T16:22:45;93500.34;;;8.90;100.00
10988;BME280;5547;42.672;23.230;2023-05-03T16:25:46;93433.88;;;8.52;100.00
10988;BME280;5547;42.672;23.230;2023-05-03T16:28:46;93464.06;;;8.69;100.00
10988;BME280;5547;42.672;23.230;2023-05-03T16:31:47;93488.25;;;8.85;100.00
10988;BME280;5547;42.672;23.230;2023-05-03T16:34:48;93498.88;;;8.81;100.00